Time;durP1;ratioP1;P1;durP2;ratioP2;P2;SDS_P1;SDS_P2;PMS_P1;PMS_P2;Temp;Humidity;BMP_temperature;BMP_pressure;BME280_temperature;BME280_humidity;BME280_pressure;Samples;Min_cycle;Max_cycle;Signal;HPM_P1;HPM_P2
2022/03/18 00:00:54;;;;;;;4.87;4.10;;;13.20;59.60;;;-142.21;100.00;112049.66;5076956;28;20530;-78
2022/03/18 00:03:21;;;;;;;4.27;3.60;;;13.20;59.50;;;-142.21;100.00;112049.66;5076450;28;20447;-79
2022/03/18 00:05:49;;;;;;;5.80;3.93;;;13.10;59.80;;;-142.21;100.00;112049.66;5075947;28;20955;-78
2022/03/18 00:08:17;;;;;;;3.93;3.40;;;13.10;59.40;;;-142.21;100.00;112049.66;5076772;28;20462;-79
2022/03/18 00:10:45;;;;;;;5.00;3.70;;;13.10;59.50;;;-142.21;100.00;112049.66;5076581;28;20522;-79
2022/03/18 00:13:12;;;;;;;4.93;3.60;;;13.10;59.20;;;-142.21;100.00;112049.66;5076488;28;20435;-79
2022/03/18 00:15:39;;;;;;;6.30;3.80;;;13.10;59.40;;;-142.21;100.00;112049.66;5083568;28;20484;-79
2022/03/18 00:18:08;;;;;;;4.83;3.40;;;13.10;59.40;;;-142.21;100.00;112049.66;5096956;28;20454;-78
2022/03/18 00:20:35;;;;;;;4.50;3.53;;;13.10;59.50;;;-142.21;100.00;112049.66;5097155;28;20451;-78
2022/03/18 00:23:03;;;;;;;5.67;3.27;;;13.10;59.40;;;-142.21;100.00;112049.66;5096345;28;20522;-77
2022/03/18 00:25:30;;;;;;;4.93;3.33;;;13.10;59.30;;;-142.21;100.00;112049.66;5096127;28;20455;-80
2022/03/18 00:27:57;;;;;;;4.87;3.37;;;13.10;59.40;;;-142.21;99.52;112049.66;5096735;28;20860;-81
2022/03/18 00:30:25;;;;;;;4.37;3.80;;;13.10;59.20;;;-142.21;99.85;112049.66;5096137;28;20506;-80
2022/03/18 00:32:53;;;;;;;5.63;3.43;;;13.10;59.30;;;-142.21;99.87;112049.66;5096052;28;20519;-79
2022/03/18 00:35:21;;;;;;;3.73;3.27;;;13.10;59.30;;;-142.21;99.87;112049.66;5089378;28;20484;-78
2022/03/18 00:37:48;;;;;;;7.90;3.70;;;13.10;59.10;;;-142.21;100.00;112049.66;5074978;28;20479;-82
2022/03/18 00:40:16;;;;;;;5.03;3.40;;;13.10;59.30;;;-142.21;99.04;112049.66;5075667;28;20486;-79
2022/03/18 00:42:43;;;;;;;6.13;3.20;;;13.00;59.00;;;-142.21;99.18;112049.66;5075854;28;20451;-79
2022/03/18 00:45:11;;;;;;;7.73;3.43;;;12.90;58.90;;;-142.21;99.75;112049.66;5075827;28;20566;-78
2022/03/18 00:53:09;;;;;;;5.70;2.93;;;13.00;59.30;;;-142.21;99.15;112049.66;5075838;28;20415;-82
2022/03/18 00:55:36;;;;;;;5.80;3.63;;;13.00;59.10;;;-142.21;99.61;112049.66;5075932;28;20534;-81
2022/03/18 00:58:04;;;;;;;6.43;4.00;;;12.90;58.90;;;-142.21;99.79;112049.66;5075534;28;20448;-82
2022/03/18 01:00:32;;;;;;;6.50;3.73;;;12.90;59.10;;;-142.21;99.90;112049.66;5075502;28;20512;-81
2022/03/18 01:02:59;;;;;;;4.53;3.40;;;13.00;59.00;;;-142.21;99.55;112049.66;5075007;28;20475;-79
2022/03/18 01:05:28;;;;;;;5.70;3.60;;;13.00;59.10;;;-142.21;99.43;112049.66;5076072;28;20530;-82
2022/03/18 01:07:55;;;;;;;5.87;3.73;;;13.00;58.90;;;-142.21;98.06;112049.66;5075427;28;20493;-79
2022/03/18 01:10:23;;;;;;;5.13;3.63;;;12.90;58.30;;;-142.21;98.67;112049.66;5075336;28;20828;-79
2022/03/18 01:12:50;;;;;;;4.93;3.70;;;13.00;58.80;;;-142.21;99.34;112049.66;5075657;28;20455;-82
2022/03/18 01:15:17;;;;;;;6.73;3.10;;;13.00;58.50;;;-142.21;98.67;112049.66;5075345;28;20451;-79
2022/03/18 01:17:45;;;;;;;7.43;3.90;;;13.00;58.70;;;-142.21;98.89;112049.66;5075214;28;20523;-79
2022/03/18 01:20:12;;;;;;;5.10;3.40;;;13.00;58.60;;;-142.21;99.07;112049.66;5075469;28;20566;-83
2022/03/18 01:22:41;;;;;;;7.00;4.00;;;12.90;58.60;;;-142.21;98.31;112049.66;5075009;28;20947;-81
2022/03/18 01:25:10;;;;;;;5.60;3.00;;;12.90;58.60;;;-142.21;98.96;112049.66;5074875;28;20547;-82
2022/03/18 01:27:37;;;;;;;6.93;3.53;;;12.90;58.70;;;-142.21;98.57;112049.66;5075539;28;20527;-82
2022/03/18 01:30:06;;;;;;;7.20;3.60;;;12.90;58.30;;;-142.21;97.83;112049.66;5075259;28;20487;-83
2022/03/18 01:32:34;;;;;;;4.93;3.03;;;12.90;58.50;;;-142.21;98.50;112049.66;5075920;28;20455;-83
2022/03/18 01:35:01;;;;;;;4.93;3.70;;;12.80;59.00;;;-142.21;98.59;112049.66;5095270;28;20446;-82
2022/03/18 01:37:28;;;;;;;6.30;3.20;;;12.80;58.50;;;-142.21;97.83;112049.66;5078912;28;20567;-80
2022/03/18 01:39:57;;;;;;;5.27;3.47;;;12.80;58.20;;;-142.21;98.55;112049.66;5075385;28;21002;-78
2022/03/18 01:42:25;;;;;;;5.90;3.43;;;12.80;58.20;;;-142.21;98.43;112049.66;5074984;28;20516;-80
2022/03/18 01:44:52;;;;;;;6.40;3.80;;;12.80;58.40;;;-142.21;98.43;112049.66;5074637;28;20483;-79
2022/03/18 01:47:20;;;;;;;4.50;3.37;;;12.80;58.60;;;-142.21;98.86;112049.66;5074793;28;20431;-81
2022/03/18 01:49:47;;;;;;;4.57;3.10;;;12.80;58.40;;;-142.21;98.23;112049.66;5074305;28;20570;-80
2022/03/18 01:52:15;;;;;;;5.10;3.47;;;12.70;58.20;;;-142.21;98.93;112049.66;5074941;28;20469;-79
2022/03/18 01:54:51;;;;;;;7.87;3.57;;;12.80;58.50;;;-142.21;98.59;112049.66;5074470;28;20475;-80
2022/03/18 01:57:23;;;;;;;4.93;3.30;;;12.80;58.40;;;-142.21;98.23;112049.66;5074797;28;20518;-79
2022/03/18 01:59:52;;;;;;;5.17;3.17;;;12.80;58.70;;;-142.21;98.28;112049.66;5074666;28;20456;-77
2022/03/18 02:02:20;;;;;;;4.43;3.10;;;12.70;58.30;;;-142.21;98.29;112049.66;5074184;28;20531;-79
2022/03/18 02:04:48;;;;;;;4.97;3.20;;;12.80;58.40;;;-142.21;98.33;112049.66;5073917;28;20451;-77
2022/03/18 02:07:16;;;;;;;6.60;3.60;;;12.80;58.30;;;-142.21;97.82;112049.66;5074053;28;20580;-78
2022/03/18 02:09:44;;;;;;;3.57;2.90;;;12.70;58.30;;;-142.21;99.28;112049.66;5073542;28;20566;-78
2022/03/18 02:12:12;;;;;;;9.17;3.80;;;12.80;58.50;;;-142.21;97.20;112049.66;5078357;28;20446;-78
2022/03/18 02:14:44;;;;;;;7.13;3.77;;;12.70;58.00;;;-142.21;98.77;112049.66;5094573;28;21007;-79
2022/03/18 02:17:14;;;;;;;5.50;3.33;;;12.70;58.60;;;-142.21;98.03;112049.66;5094627;28;20557;-78
2022/03/18 02:19:43;;;;;;;5.53;3.30;;;12.70;58.30;;;-142.21;98.49;112049.66;5094582;28;20481;-79
2022/03/18 02:22:13;;;;;;;5.20;3.87;;;12.70;58.40;;;-142.21;98.65;112049.66;5094326;28;20481;-77
2022/03/18 02:24:44;;;;;;;5.40;3.57;;;12.80;58.10;;;-142.21;99.15;112049.66;5094541;28;20454;-78
2022/03/18 02:27:11;;;;;;;6.53;3.80;;;12.80;58.50;;;-142.21;98.62;112049.66;5095221;28;20535;-78
2022/03/18 02:29:40;;;;;;;3.53;3.00;;;12.70;57.80;;;-142.21;98.42;112049.66;5093988;28;20473;-82
2022/03/18 02:32:09;;;;;;;6.70;3.33;;;12.60;58.20;;;-142.21;98.20;112049.66;5094071;28;20450;-78
2022/03/18 02:34:39;;;;;;;5.73;3.47;;;12.60;58.30;;;-142.21;98.46;112049.66;5094331;28;20469;-82
2022/03/18 02:37:08;;;;;;;6.00;3.50;;;12.70;58.40;;;-142.21;98.52;112049.66;5098172;28;20545;-79
2022/03/18 02:39:36;;;;;;;7.10;4.13;;;12.70;58.30;;;-142.21;97.99;112049.66;5104772;28;20434;-80
2022/03/18 02:42:06;;;;;;;5.17;3.47;;;12.70;58.40;;;-142.21;98.21;112049.66;5093945;28;20450;-79
2022/03/18 02:44:34;;;;;;;6.20;3.43;;;12.70;58.40;;;-142.21;98.77;112049.66;5093696;28;20486;-77
2022/03/18 02:47:02;;;;;;;7.67;3.80;;;12.50;58.00;;;-142.21;98.76;112049.66;5093773;28;20475;-78
2022/03/18 02:49:29;;;;;;;5.87;3.37;;;12.60;58.10;;;-142.21;98.43;112049.66;5093867;28;20435;-79
2022/03/18 02:51:57;;;;;;;6.53;3.50;;;12.60;58.20;;;-142.21;99.12;112049.66;5094556;28;21046;-79
2022/03/18 02:54:24;;;;;;;6.93;3.30;;;12.60;58.40;;;-142.21;99.29;112049.66;5094272;28;20530;-80
2022/03/18 02:56:52;;;;;;;5.83;3.57;;;12.60;58.50;;;-142.21;98.83;112049.66;5094278;28;20525;-79
2022/03/18 02:59:20;;;;;;;6.67;3.63;;;12.60;58.20;;;-142.21;98.79;112049.66;5093920;28;20998;-77
2022/03/18 03:01:48;;;;;;;5.77;3.20;;;12.60;58.20;;;-142.21;98.63;112049.66;5096613;28;20943;-78
2022/03/18 03:04:17;;;;;;;5.97;3.17;;;12.60;58.00;;;-142.21;99.22;112049.66;5097984;28;20481;-78
2022/03/18 03:09:30;;;;;;;5.47;3.50;;;12.60;58.60;;;-142.21;100.00;112049.66;5098128;28;20461;-78
2022/03/18 03:11:57;;;;;;;5.00;3.33;;;12.60;58.70;;;-142.21;99.70;112049.66;5097645;28;20577;-80
2022/03/18 03:14:26;;;;;;;4.80;3.27;;;12.60;58.40;;;-142.21;99.14;112049.66;5098291;28;20792;-79
2022/03/18 03:16:54;;;;;;;4.17;3.20;;;12.60;58.50;;;-142.21;99.05;112049.66;5097768;28;20450;-78
2022/03/18 03:19:21;;;;;;;4.90;3.27;;;12.50;58.00;;;-142.21;99.43;112049.66;5097205;28;20488;-80
2022/03/18 03:21:48;;;;;;;5.33;3.10;;;12.50;58.20;;;-142.21;99.49;112049.66;5097954;28;20481;-80
2022/03/18 03:24:16;;;;;;;4.23;2.97;;;12.40;58.30;;;-142.21;99.05;112049.66;5097595;28;21071;-78
2022/03/18 03:26:43;;;;;;;5.63;3.43;;;12.40;58.50;;;-142.21;98.16;112049.66;5097725;28;20466;-79
2022/03/18 03:29:10;;;;;;;7.20;3.20;;;12.40;58.30;;;-142.21;98.64;112049.66;5097656;28;20485;-80
2022/03/18 03:31:39;;;;;;;5.43;3.07;;;12.40;58.40;;;-142.21;98.28;112049.66;5096831;28;20574;-78
2022/03/18 03:34:06;;;;;;;6.13;3.23;;;12.40;58.10;;;-142.21;97.95;112049.66;5097640;28;20458;-78
2022/03/18 03:36:33;;;;;;;5.23;2.80;;;12.30;58.20;;;-142.21;98.09;112049.66;5097634;28;20533;-78
2022/03/18 03:39:00;;;;;;;6.37;3.40;;;12.30;58.50;;;-142.21;98.88;112049.66;5097222;28;20473;-79
2022/03/18 03:41:28;;;;;;;4.37;3.30;;;12.30;58.40;;;-142.21;97.76;112049.66;5098552;28;20499;-79
2022/03/18 03:43:55;;;;;;;5.03;3.10;;;12.20;58.20;;;-142.21;98.66;112049.66;5107219;28;20450;-80
2022/03/18 03:46:22;;;;;;;4.57;2.97;;;12.30;58.50;;;-142.21;98.53;112049.66;5100145;28;20508;-80
2022/03/18 03:48:51;;;;;;;9.70;3.57;;;12.30;58.50;;;-142.21;98.08;112049.66;5088496;28;20470;-79
2022/03/18 03:51:18;;;;;;;6.67;3.37;;;12.40;58.20;;;-142.21;98.92;112049.66;5076862;28;20571;-78
2022/03/18 03:53:45;;;;;;;6.47;3.27;;;12.30;58.20;;;-142.21;98.82;112049.66;5077005;28;20482;-80
2022/03/18 03:56:12;;;;;;;4.57;2.93;;;12.40;58.20;;;-142.21;98.16;112049.66;5076805;28;20471;-80
2022/03/18 03:58:40;;;;;;;5.57;3.30;;;12.30;58.10;;;-142.21;98.22;112049.66;5076069;28;20489;-78
2022/03/18 04:01:07;;;;;;;7.33;3.00;;;12.30;58.00;;;-142.21;98.67;112049.66;5084835;28;20481;-78
2022/03/18 04:03:34;;;;;;;7.63;2.90;;;12.30;58.20;;;-142.21;98.31;112049.66;5097006;28;20986;-78
2022/03/18 04:06:03;;;;;;;5.20;3.30;;;12.30;58.70;;;-142.21;97.84;112049.66;5096775;28;20474;-79
2022/03/18 04:08:30;;;;;;;4.40;2.83;;;12.30;57.90;;;-142.21;98.00;112049.66;5096843;28;20450;-80
2022/03/18 04:10:58;;;;;;;6.60;2.97;;;12.30;58.20;;;-142.21;97.63;112049.66;5096778;28;20484;-78
2022/03/18 04:13:25;;;;;;;4.70;2.83;;;12.30;58.00;;;-142.21;97.84;112049.66;5096077;28;20533;-79
2022/03/18 04:15:52;;;;;;;5.57;3.37;;;12.30;58.00;;;-142.21;97.72;112049.66;5096682;28;20481;-79
2022/03/18 04:18:19;;;;;;;5.87;3.00;;;12.30;57.80;;;-142.21;98.05;112049.66;5096465;28;20535;-79
2022/03/18 04:20:47;;;;;;;7.43;3.07;;;12.30;57.90;;;-142.21;97.79;112049.66;5096725;28;20470;-79
2022/03/18 04:23:15;;;;;;;4.30;2.90;;;12.30;57.80;;;-142.21;98.55;112049.66;5096655;28;20499;-79
2022/03/18 04:25:42;;;;;;;7.53;3.30;;;12.30;58.30;;;-142.21;98.40;112049.66;5096769;28;20466;-79
2022/03/18 04:28:10;;;;;;;5.77;2.70;;;12.20;58.10;;;-142.21;98.40;112049.66;5096233;28;20454;-82
2022/03/18 04:30:37;;;;;;;6.00;2.77;;;12.20;58.20;;;-142.21;98.30;112049.66;5096621;28;20565;-80
2022/03/18 04:33:06;;;;;;;5.63;3.07;;;12.20;58.30;;;-142.21;98.61;112049.66;5096813;28;20446;-81
2022/03/18 04:35:33;;;;;;;5.53;2.90;;;12.20;58.10;;;-142.21;98.08;112049.66;5096726;28;20541;-82
2022/03/18 04:38:01;;;;;;;6.37;3.50;;;12.30;58.20;;;-142.21;98.17;112049.66;5096637;28;20513;-80
2022/03/18 04:40:31;;;;;;;7.17;3.10;;;12.20;58.20;;;-142.21;98.30;112049.66;5096405;28;20446;-82
2022/03/18 04:42:58;;;;;;;4.30;3.20;;;12.30;58.20;;;-142.21;97.94;112049.66;5096421;28;21057;-79
2022/03/18 04:45:26;;;;;;;8.00;3.13;;;12.30;57.80;;;-142.21;97.75;112049.66;5096295;28;20565;-79
2022/03/18 04:47:54;;;;;;;6.13;3.30;;;12.30;58.10;;;-142.21;97.77;112049.66;5096454;28;20450;-79
2022/03/18 04:50:22;;;;;;;5.77;3.50;;;12.20;57.90;;;-142.21;97.78;112049.66;5095682;28;20459;-80
2022/03/18 04:52:49;;;;;;;7.23;3.17;;;12.10;58.00;;;-142.21;97.41;112049.66;5096463;28;20474;-78
2022/03/18 04:55:17;;;;;;;4.63;2.70;;;12.10;58.20;;;-142.21;98.17;112049.66;5096464;28;20521;-81
2022/03/18 04:57:46;;;;;;;4.23;2.93;;;12.20;58.50;;;-142.21;98.28;112049.66;5096246;28;20528;-79
2022/03/18 05:00:14;;;;;;;9.17;3.63;;;12.20;58.20;;;-142.21;98.94;112049.66;5096584;28;20511;-80
2022/03/18 05:02:43;;;;;;;5.53;3.03;;;12.30;58.50;;;-142.21;99.07;112049.66;5096032;28;20486;-81
2022/03/18 05:05:11;;;;;;;5.73;3.33;;;12.30;58.60;;;-142.21;98.88;112049.66;5096227;28;20471;-81
2022/03/18 05:07:40;;;;;;;6.63;3.27;;;12.30;58.20;;;-142.21;98.65;112049.66;5095838;28;20934;-81
2022/03/18 05:10:09;;;;;;;6.47;3.43;;;12.30;58.40;;;-142.21;98.81;112049.66;5096318;28;20537;-79
2022/03/18 05:12:36;;;;;;;6.67;3.90;;;12.30;58.30;;;-142.21;97.87;112049.66;5095322;28;20496;-80
2022/03/18 05:15:08;;;;;;;7.70;3.93;;;12.30;57.80;;;-142.21;97.69;112049.66;5096271;28;20458;-79
2022/03/18 05:17:36;;;;;;;4.00;3.10;;;12.30;58.00;;;-142.21;98.09;112049.66;5095915;28;20601;-78
2022/03/18 05:20:05;;;;;;;6.27;3.03;;;12.30;58.00;;;-142.21;98.31;112049.66;5094636;28;20484;-79
2022/03/18 05:22:33;;;;;;;7.20;3.20;;;12.20;58.30;;;-142.21;98.52;112049.66;5095531;28;20439;-80
2022/03/18 05:25:01;;;;;;;7.07;3.77;;;12.20;58.00;;;-142.21;98.62;112049.66;5094023;28;20481;-79
2022/03/18 05:27:28;;;;;;;6.60;3.07;;;12.20;58.00;;;-142.21;98.27;112049.66;5095456;28;20496;-79
2022/03/18 05:29:55;;;;;;;6.23;3.40;;;12.20;58.10;;;-142.21;98.11;112049.66;5095204;28;20483;-79
2022/03/18 05:32:24;;;;;;;6.97;3.50;;;12.20;58.00;;;-142.21;98.17;112049.66;5095234;28;20497;-81
2022/03/18 05:34:52;;;;;;;7.13;3.33;;;12.20;58.10;;;-142.21;98.13;112049.66;5095975;28;20922;-82
2022/03/18 05:37:19;;;;;;;6.77;4.07;;;12.10;58.00;;;-142.21;98.32;112049.66;5095456;28;20475;-79
2022/03/18 05:39:46;;;;;;;9.97;3.30;;;12.10;58.00;;;-142.21;98.10;112049.66;5095215;28;20474;-80
2022/03/18 05:42:14;;;;;;;4.80;3.33;;;12.10;57.90;;;-142.21;97.88;112049.66;5094756;28;20439;-78
2022/03/18 05:44:41;;;;;;;6.33;3.57;;;12.10;58.20;;;-142.21;97.84;112049.66;5094681;28;20470;-79
2022/03/18 05:47:09;;;;;;;4.73;2.93;;;12.10;58.50;;;-142.21;97.95;112049.66;5095331;28;20473;-80
2022/03/18 05:49:37;;;;;;;7.20;3.23;;;12.10;57.90;;;-142.21;98.38;112049.66;5094070;28;21391;-78
2022/03/18 05:52:05;;;;;;;5.53;3.37;;;12.10;58.20;;;-142.21;98.36;112049.66;5094553;28;20891;-80
2022/03/18 05:54:32;;;;;;;7.33;3.73;;;12.10;58.60;;;-142.21;98.20;112049.66;5094814;28;20458;-79
2022/03/18 05:56:59;;;;;;;8.70;3.70;;;12.10;58.20;;;-142.21;98.45;112049.66;5094544;28;20874;-79
2022/03/18 05:59:28;;;;;;;6.07;4.10;;;12.10;58.40;;;-142.21;98.47;112049.66;5095078;28;20533;-79
2022/03/18 06:02:00;;;;;;;6.77;3.40;;;12.10;58.40;;;-142.21;98.49;112049.66;5094823;28;20855;-78
2022/03/18 06:04:29;;;;;;;6.37;3.33;;;11.90;58.40;;;-142.21;97.96;112049.66;5094353;28;20446;-81
2022/03/18 06:06:57;;;;;;;5.30;3.33;;;11.90;58.60;;;-142.21;98.60;112049.66;5074512;28;20447;-80
2022/03/18 06:12:10;;;;;;;9.33;3.60;;;12.00;58.40;;;-142.21;98.55;112049.66;5077571;28;20481;-80
2022/03/18 06:14:38;;;;;;;6.97;3.70;;;12.00;58.40;;;-142.21;98.72;112049.66;5088131;28;20458;-80
2022/03/18 06:17:07;;;;;;;10.33;3.50;;;12.00;58.40;;;-142.21;99.12;112049.66;5097788;28;20809;-80
2022/03/18 06:19:35;;;;;;;8.67;3.67;;;12.10;58.80;;;-142.21;99.12;112049.66;5094432;28;20460;-79
2022/03/18 06:22:05;;;;;;;5.47;3.53;;;12.10;58.60;;;-142.21;98.64;112049.66;5094964;28;20529;-78
2022/03/18 06:24:32;;;;;;;7.47;3.57;;;12.10;58.60;;;-142.21;98.92;112049.66;5094480;28;20621;-79
2022/03/18 06:27:01;;;;;;;6.47;3.57;;;12.20;58.50;;;-142.21;98.67;112049.66;5094966;28;20490;-79
2022/03/18 06:29:29;;;;;;;5.20;3.67;;;12.20;58.60;;;-142.21;98.63;112049.66;5095029;28;20500;-79
2022/03/18 06:31:59;;;;;;;6.27;3.70;;;12.20;58.40;;;-142.21;98.83;112049.66;5094264;28;20482;-78
2022/03/18 06:34:27;;;;;;;6.80;3.60;;;12.10;58.40;;;-142.21;98.86;112049.66;5094766;28;20450;-79
2022/03/18 06:36:57;;;;;;;10.00;4.23;;;12.20;58.50;;;-142.21;98.60;112049.66;5093430;28;20450;-78
2022/03/18 06:39:25;;;;;;;7.50;4.30;;;12.20;58.70;;;-142.21;99.22;112049.66;5094055;28;20455;-78
2022/03/18 06:41:54;;;;;;;6.50;3.77;;;12.30;58.50;;;-142.21;98.67;112049.66;5093418;28;20442;-78
2022/03/18 06:44:21;;;;;;;7.47;3.50;;;12.30;58.30;;;-142.21;98.48;112049.66;5093528;28;20486;-78
2022/03/18 06:46:50;;;;;;;7.13;3.90;;;12.30;58.20;;;-142.21;98.28;112049.66;5093597;28;20802;-79
2022/03/18 06:49:18;;;;;;;6.80;4.23;;;12.40;58.20;;;-142.21;98.77;112049.66;5093787;28;20473;-79
2022/03/18 06:51:45;;;;;;;9.60;3.80;;;12.40;58.40;;;-142.21;97.92;112049.66;5093446;28;20505;-81
2022/03/18 06:54:13;;;;;;;8.87;3.83;;;12.40;57.90;;;-142.21;98.69;112049.66;5094033;28;20450;-77
2022/03/18 06:56:43;;;;;;;6.87;3.93;;;12.40;58.00;;;-142.21;98.91;112049.66;5092416;28;20446;-79
2022/03/18 06:59:10;;;;;;;4.93;3.17;;;12.50;57.90;;;-142.21;98.45;112049.66;5092520;28;20957;-79
2022/03/18 07:01:38;;;;;;;9.53;3.90;;;12.50;58.00;;;-142.21;98.62;112049.66;5092546;28;20559;-79
2022/03/18 07:04:11;;;;;;;7.07;4.20;;;12.60;58.30;;;-142.21;98.58;112049.66;5093084;28;20454;-75
2022/03/18 07:06:38;;;;;;;6.03;3.53;;;12.60;57.80;;;-142.21;98.40;112049.66;5093085;28;20438;-81
2022/03/18 07:09:06;;;;;;;5.10;4.03;;;12.60;57.70;;;-142.21;98.91;112049.66;5094019;28;20855;-79
2022/03/18 07:11:33;;;;;;;6.97;3.67;;;12.60;57.70;;;-142.21;98.57;112049.66;5093567;28;20482;-80
2022/03/18 07:14:01;;;;;;;5.87;3.43;;;12.60;57.70;;;-142.21;98.49;112049.66;5092606;28;20482;-80
2022/03/18 07:19:15;;;;;;;6.80;4.03;;;12.50;57.90;;;-142.21;98.45;112049.66;5093401;28;20415;-79
2022/03/18 07:21:44;;;;;;;7.03;4.20;;;12.50;57.90;;;-142.21;98.72;112049.66;5093476;28;20452;-81
2022/03/18 07:24:11;;;;;;;6.73;3.97;;;12.60;58.00;;;-142.21;98.55;112049.66;5093044;28;20453;-79
2022/03/18 07:26:38;;;;;;;5.73;4.13;;;12.70;57.90;;;-142.21;98.31;112049.66;5093469;28;20547;-75
2022/03/18 07:29:08;;;;;;;6.87;4.10;;;12.70;58.00;;;-142.21;97.89;112049.66;5092337;28;20450;-76
2022/03/18 07:31:35;;;;;;;8.23;4.63;;;12.70;57.40;;;-142.21;98.13;112049.66;5092310;28;20557;-76
2022/03/18 07:34:02;;;;;;;6.10;4.57;;;12.70;57.70;;;-142.21;98.54;112049.66;5091890;28;20446;-78
2022/03/18 07:36:30;;;;;;;8.63;4.30;;;12.70;57.80;;;-142.21;97.71;112049.66;5091266;28;20512;-79
2022/03/18 07:38:57;;;;;;;6.23;4.50;;;12.70;57.60;;;-142.21;97.93;112049.66;5091433;28;20938;-79
2022/03/18 07:41:24;;;;;;;7.67;4.70;;;12.60;57.50;;;-142.21;97.65;112049.66;5071082;28;20442;-79
2022/03/18 07:43:52;;;;;;;7.60;4.90;;;12.70;57.80;;;-142.21;98.04;112049.66;5075051;28;20501;-75
2022/03/18 07:46:21;;;;;;;7.03;4.67;;;12.70;57.60;;;-142.21;97.83;112049.66;5081401;28;20436;-75
2022/03/18 07:48:48;;;;;;;6.07;4.20;;;12.70;57.60;;;-142.21;98.29;112049.66;5083853;28;20478;-78
2022/03/18 07:51:15;;;;;;;7.63;4.60;;;12.70;58.10;;;-142.21;98.20;112049.66;5089982;28;20537;-79
2022/03/18 07:53:43;;;;;;;10.23;4.93;;;12.80;58.00;;;-142.21;97.62;112049.66;5084748;28;20455;-77
2022/03/18 07:56:10;;;;;;;9.23;4.30;;;12.80;57.60;;;-142.21;97.94;112049.66;5075457;28;20526;-77
2022/03/18 07:58:37;;;;;;;8.03;4.83;;;12.90;57.70;;;-142.21;97.24;112049.66;5094798;28;20439;-75
2022/03/18 08:01:10;;;;;;;8.40;4.00;;;12.80;57.10;;;-142.21;97.61;112049.66;5089112;28;20867;-76
2022/03/18 08:03:39;;;;;;;9.60;4.30;;;12.80;57.60;;;-142.21;97.72;112049.66;5084278;28;20466;-77
2022/03/18 08:06:07;;;;;;;9.83;5.20;;;12.80;58.20;;;-142.21;98.08;112049.66;5088166;28;20808;-77
2022/03/18 08:08:35;;;;;;;8.23;4.40;;;12.70;57.60;;;-142.21;96.44;112049.66;5086898;28;20850;-76
2022/03/18 08:11:03;;;;;;;7.60;4.47;;;12.80;57.20;;;-142.21;96.57;112049.66;5091117;28;20950;-77
2022/03/18 08:13:35;;;;;;;9.83;4.80;;;12.70;57.30;;;-142.21;97.00;112049.66;5089532;28;20478;-77
2022/03/18 08:16:02;;;;;;;9.27;4.20;;;12.70;57.40;;;-142.21;96.95;112049.66;5074931;28;20475;-75
2022/03/18 08:18:30;;;;;;;10.23;5.43;;;12.80;57.50;;;-142.21;97.39;112049.66;5089866;28;20489;-75
2022/03/18 08:21:13;;;;;;;9.53;4.50;;;12.80;57.50;;;-142.21;97.87;112049.66;5090036;28;20454;-76
2022/03/18 08:23:44;;;;;;;6.63;4.13;;;12.80;57.30;;;-142.21;98.16;112049.66;5094285;28;20453;-76
2022/03/18 08:26:11;;;;;;;7.07;4.33;;;12.80;57.60;;;-142.21;97.16;112049.66;5094293;28;20415;-78
2022/03/18 08:28:38;;;;;;;7.63;4.77;;;12.90;58.00;;;-142.21;97.65;112049.66;5095228;28;20446;-78
2022/03/18 08:31:06;;;;;;;5.60;4.33;;;13.00;57.50;;;-142.21;98.28;112049.66;5096080;28;20446;-82
2022/03/18 08:33:34;;;;;;;6.20;4.33;;;12.90;57.20;;;-142.21;95.95;112049.66;5094894;28;21049;-78
2022/03/18 08:36:03;;;;;;;7.20;4.70;;;12.90;57.00;;;-142.21;97.85;112049.66;5093905;28;20523;-81
2022/03/18 08:38:30;;;;;;;7.77;4.90;;;12.90;57.30;;;-142.21;97.65;112049.66;5095085;28;20849;-76
2022/03/18 08:40:57;;;;;;;8.67;4.53;;;13.00;57.40;;;-142.21;97.14;112049.66;5092180;28;20472;-82
2022/03/18 08:43:25;;;;;;;9.00;4.63;;;13.10;57.60;;;-142.21;96.42;112049.66;5094760;28;20478;-78
2022/03/18 08:45:52;;;;;;;7.37;4.10;;;13.20;57.10;;;-142.21;95.69;112049.66;5093137;28;20500;-79
2022/03/18 08:48:19;;;;;;;7.23;4.63;;;13.20;56.90;;;-142.21;97.02;112049.66;5090150;28;20538;-80
2022/03/18 08:50:46;;;;;;;7.10;4.30;;;13.30;57.20;;;-142.21;95.72;112049.66;5088741;28;20443;-76
2022/03/18 08:53:15;;;;;;;9.43;4.53;;;13.30;56.80;;;-142.21;96.25;112049.66;5090614;28;20561;-76
2022/03/18 08:56:30;;;;;;;6.37;4.40;;;13.40;56.90;;;-142.21;96.01;112049.66;5074285;28;20977;-75
2022/03/18 08:58:57;;;;;;;8.33;4.40;;;13.50;56.80;;;-142.21;96.47;112049.66;5079922;28;20446;-79
2022/03/18 09:01:26;;;;;;;11.63;4.73;;;13.60;56.50;;;-142.21;95.79;112049.66;5087586;28;20453;-75
2022/03/18 09:03:56;;;;;;;7.33;4.30;;;13.70;56.40;;;-142.21;96.23;112049.66;5075989;28;20530;-77
2022/03/18 09:06:23;;;;;;;6.63;4.83;;;13.80;56.50;;;-142.21;95.52;112049.66;5086428;28;20515;-79
2022/03/18 09:08:52;;;;;;;11.97;5.50;;;13.90;56.50;;;-142.21;95.84;112049.66;5080761;28;20470;-74
2022/03/18 09:11:20;;;;;;;8.10;5.40;;;14.00;56.30;;;-142.21;94.63;112049.66;5075080;28;20785;-79
2022/03/18 09:13:47;;;;;;;7.80;4.73;;;14.10;55.80;;;-142.21;95.65;112049.66;5084385;28;20523;-80
2022/03/18 09:16:15;;;;;;;7.73;5.10;;;14.20;56.10;;;-142.21;95.36;112049.66;5076292;28;20505;-79
2022/03/18 09:18:42;;;;;;;8.50;5.33;;;14.30;55.20;;;-142.21;96.05;112049.66;5075129;28;20463;-78
2022/03/18 09:21:09;;;;;;;7.43;4.83;;;14.40;55.60;;;-142.21;95.07;112049.66;5082534;28;21005;-79
2022/03/18 09:23:38;;;;;;;7.43;4.97;;;14.50;55.50;;;-142.21;95.14;112049.66;5091790;28;20554;-79
2022/03/18 09:26:07;;;;;;;8.07;5.57;;;14.50;55.10;;;-142.21;93.91;112049.66;5081446;28;20471;-79
2022/03/18 09:28:34;;;;;;;10.80;6.47;;;14.60;55.30;;;-142.21;94.18;112049.66;5092435;28;20992;-79
2022/03/18 09:31:02;;;;;;;7.93;6.00;;;14.40;55.10;;;-142.21;95.44;112049.66;5095220;28;20512;-81
2022/03/18 09:33:30;;;;;;;10.53;6.43;;;14.40;55.50;;;-142.21;94.60;112049.66;5093172;28;20510;-74
2022/03/18 09:35:57;;;;;;;8.83;6.80;;;14.30;54.80;;;-142.21;93.48;112049.66;5091599;28;21014;-76
2022/03/18 09:38:25;;;;;;;10.67;7.37;;;14.30;55.20;;;-142.21;93.83;112049.66;5091735;28;20595;-79
2022/03/18 09:40:52;;;;;;;13.27;7.43;;;14.40;55.20;;;-142.21;94.67;112049.66;5092488;28;20477;-80
2022/03/18 09:43:21;;;;;;;11.23;7.17;;;14.50;54.70;;;-142.21;93.91;112049.66;5092819;28;20477;-77
2022/03/18 09:45:49;;;;;;;11.97;7.50;;;14.60;54.80;;;-142.21;91.98;112049.66;5086888;28;20494;-78
2022/03/18 09:48:18;;;;;;;8.80;6.80;;;14.70;54.50;;;-142.21;93.10;112049.66;5097685;28;20450;-77
2022/03/18 09:50:59;;;;;;;11.73;6.77;;;14.80;54.70;;;-142.21;92.94;112049.66;5092823;28;20446;-76
2022/03/18 09:53:40;;;;;;;13.20;8.57;;;14.80;54.30;;;-142.21;92.53;112049.66;5095431;28;20470;-74
2022/03/18 09:56:11;;;;;;;12.00;7.23;;;14.90;54.60;;;-142.21;91.53;112049.66;5096954;28;20475;-76
2022/03/18 09:58:42;;;;;;;9.77;6.80;;;15.20;54.30;;;-142.21;91.75;112049.66;5098416;28;20837;-75
2022/03/18 10:01:13;;;;;;;11.13;7.27;;;15.40;53.70;;;-142.21;91.73;112049.66;5090019;28;20973;-81
2022/03/18 10:04:10;;;;;;;10.77;7.33;;;15.80;53.80;;;-142.21;89.36;112049.66;5095919;28;20773;-76
2022/03/18 10:06:43;;;;;;;13.50;8.47;;;16.10;52.30;;;-142.21;87.14;112049.66;5087938;28;20776;-77
2022/03/18 10:09:12;;;;;;;12.10;9.27;;;16.20;50.50;;;-142.21;88.08;112049.66;5079156;28;20455;-76
2022/03/18 10:11:44;;;;;;;12.90;8.93;;;16.10;51.80;;;-142.21;84.94;112049.66;5082195;28;20784;-75
2022/03/18 10:14:20;;;;;;;14.47;8.87;;;15.90;50.10;;;-142.21;85.81;112049.66;5092916;28;20454;-76
2022/03/18 10:16:50;;;;;;;12.53;9.60;;;16.00;51.00;;;-142.21;84.15;112049.66;5092666;28;20466;-79